Time;durP1;ratioP1;P1;durP2;ratioP2;P2;SDS_P1;SDS_P2;PMS_P1;PMS_P2;Temp;Humidity;BMP_temperature;BMP_pressure;BME280_temperature;BME280_humidity;BME280_pressure;Samples;Min_cycle;Max_cycle;Signal;HPM_P1;HPM_P2
2022/06/16 00:02:14;;;;;;;8.38;3.92;;;;;;;19.09;52.00;101746.09;4993139;28;20134;-75
2022/06/16 00:04:45;;;;;;;6.18;3.75;;;;;;;18.96;52.09;101735.47;4994355;28;20026;-76
2022/06/16 00:07:11;;;;;;;6.68;4.18;;;;;;;19.02;52.06;101745.75;4993740;28;20023;-75
2022/06/16 00:09:37;;;;;;;9.80;4.20;;;;;;;19.02;52.10;101747.59;4992875;28;20037;-76
2022/06/16 00:12:04;;;;;;;7.00;4.30;;;;;;;18.96;52.06;101742.72;4993013;28;20394;-76
2022/06/16 00:14:30;;;;;;;7.78;4.18;;;;;;;18.99;52.50;101743.31;4976645;28;20442;-75
2022/06/16 00:16:55;;;;;;;9.80;4.70;;;;;;;18.90;52.66;101749.47;4976989;28;20028;-75
2022/06/16 00:19:21;;;;;;;7.53;4.35;;;;;;;18.82;52.63;101752.81;4992305;28;20026;-75
2022/06/16 00:21:47;;;;;;;7.30;4.18;;;;;;;18.87;52.39;101747.03;4993082;28;20394;-75
2022/06/16 00:24:13;;;;;;;8.10;4.43;;;;;;;18.73;52.41;101747.28;4993648;28;20141;-76
2022/06/16 00:26:45;;;;;;;6.00;4.07;;;;;;;18.67;52.88;101751.34;4994232;28;20054;-75
2022/06/16 00:29:12;;;;;;;7.75;4.43;;;;;;;18.69;52.64;101752.09;4991539;28;20058;-76
2022/06/16 00:31:38;;;;;;;7.35;4.22;;;;;;;18.56;52.63;101749.56;4992774;28;20022;-75
2022/06/16 00:34:03;;;;;;;9.80;4.55;;;;;;;18.50;53.02;101742.00;4993844;28;20068;-76
2022/06/16 00:36:29;;;;;;;11.20;5.03;;;;;;;18.52;52.90;101744.53;4991487;28;20038;-76
2022/06/16 00:38:54;;;;;;;7.72;4.70;;;;;;;18.38;52.74;101746.56;4992445;28;20046;-76
2022/06/16 00:41:20;;;;;;;9.15;4.20;;;;;;;18.48;52.88;101754.72;4992623;28;20719;-75
2022/06/16 00:43:45;;;;;;;7.72;4.90;;;;;;;18.42;52.51;101755.22;4993358;28;20042;-75
2022/06/16 00:46:17;;;;;;;9.55;4.72;;;;;;;18.36;52.94;101753.03;4992326;28;20478;-76
2022/06/16 00:48:49;;;;;;;8.52;4.40;;;;;;;18.45;52.81;101754.13;4992802;28;20034;-76
2022/06/16 00:51:24;;;;;;;11.82;4.88;;;;;;;18.41;52.62;101761.56;4993383;28;20493;-75
2022/06/16 00:53:58;;;;;;;6.47;4.85;;;;;;;18.33;52.24;101764.91;4993366;28;20034;-75
2022/06/16 00:56:24;;;;;;;6.85;5.30;;;;;;;18.21;52.69;101767.75;4992246;28;20042;-76
2022/06/16 00:58:58;;;;;;;10.23;5.05;;;;;;;18.17;52.90;101775.19;4992388;28;20026;-75
2022/06/16 01:01:28;;;;;;;9.30;4.57;;;;;;;18.10;52.55;101760.53;4993559;28;20046;-75
2022/06/16 01:06:38;;;;;;;7.22;4.75;;;;;;;18.17;52.93;101769.81;4992410;28;20046;-75
2022/06/16 01:09:11;;;;;;;7.38;4.50;;;;;;;18.15;52.76;101764.56;4992166;28;20034;-75
2022/06/16 01:15:00;;;;;;;8.75;5.07;;;;;;;18.19;53.08;101775.09;4993032;28;20049;-76
2022/06/16 01:17:50;;;;;;;6.88;4.82;;;;;;;18.19;53.16;101780.47;4993182;28;20049;-75
2022/06/16 01:20:44;;;;;;;7.32;4.80;;;;;;;18.23;52.65;101781.94;4992339;28;20038;-76
2022/06/16 01:23:28;;;;;;;7.13;5.15;;;;;;;18.19;52.68;101775.94;4967616;28;20477;-75
2022/06/16 01:26:14;;;;;;;6.75;5.20;;;;;;;18.00;53.35;101781.06;4993172;28;20030;-75
2022/06/16 01:29:03;;;;;;;8.48;5.35;;;;;;;18.04;53.20;101790.63;4991722;28;20022;-75
2022/06/16 01:31:43;;;;;;;6.50;4.45;;;;;;;18.03;52.71;101787.09;4992366;28;20030;-75
2022/06/16 01:34:33;;;;;;;9.05;4.78;;;;;;;17.98;53.30;101796.50;4991032;28;20049;-75
2022/06/16 01:37:16;;;;;;;10.23;5.32;;;;;;;17.93;53.17;101802.25;4992413;28;20442;-75
2022/06/16 01:39:49;;;;;;;8.27;5.25;;;;;;;17.80;53.38;101793.44;4992109;28;20038;-75
2022/06/16 01:42:43;;;;;;;7.85;5.53;;;;;;;17.87;53.20;101794.66;5008726;28;20041;-75
2022/06/16 01:45:20;;;;;;;8.48;5.47;;;;;;;17.68;53.70;101787.16;5004389;28;20073;-75
2022/06/16 01:47:50;;;;;;;9.70;5.10;;;;;;;17.76;53.44;101795.47;5011688;28;20033;-75
2022/06/16 01:50:18;;;;;;;;;;;;;;;17.92;53.16;101795.16;5019950;28;20034;-75
2022/06/16 01:52:49;;;;;;;8.23;5.68;;;;;;;17.63;54.16;101800.94;5001890;28;20385;-75
2022/06/16 01:55:20;;;;;;;9.60;5.03;;;;;;;17.75;53.67;101793.75;5011845;28;20030;-76
2022/06/16 01:57:59;;;;;;;8.23;5.55;;;;;;;17.67;53.88;101796.19;4993713;28;20080;-75
2022/06/16 02:00:28;;;;;;;7.13;5.22;;;;;;;17.56;54.02;101794.34;5010432;28;20396;-75
2022/06/16 02:03:04;;;;;;;7.68;5.45;;;;;;;17.47;54.27;101800.41;5028973;28;20014;-75
2022/06/16 02:05:48;;;;;;;8.45;5.57;;;;;;;17.42;54.35;101808.84;5011396;28;20053;-76
2022/06/16 02:08:17;;;;;;;7.47;5.40;;;;;;;17.28;54.50;101794.75;5011351;28;20030;-75
2022/06/16 02:10:47;;;;;;;;;;;;;;;17.51;53.78;101795.69;5011253;28;20026;-76
2022/06/16 02:13:15;;;;;;;;;;;;;;;17.47;53.69;101795.03;5011591;28;19917;-75
2022/06/16 02:15:59;;;;;;;8.82;5.00;;;;;;;17.28;54.80;101789.38;5011828;28;19960;-75
2022/06/16 02:18:28;;;;;;;10.02;5.57;;;;;;;17.21;55.31;101789.84;4994092;28;20481;-75
2022/06/16 02:21:12;;;;;;;9.15;5.63;;;;;;;17.34;54.97;101799.66;5019980;28;20040;-75
2022/06/16 02:23:37;;;;;;;9.32;5.45;;;;;;;17.15;55.64;101794.84;4993762;28;20032;-75
2022/06/16 02:26:03;;;;;;;8.30;5.55;;;;;;;17.20;55.29;101790.78;4994067;28;20037;-75
2022/06/16 02:28:29;;;;;;;7.00;5.10;;;;;;;17.18;55.55;101795.44;5011186;28;20033;-75
2022/06/16 02:31:36;;;;;;;10.60;5.57;;;;;;;17.18;55.27;101803.53;5010918;28;20465;-75
2022/06/16 02:34:29;;;;;;;9.35;5.68;;;;;;;17.09;55.56;101809.59;4929424;29;20035;-75
2022/06/16 02:37:30;;;;;;;10.52;5.75;;;;;;;17.11;55.54;101822.91;5011079;28;20033;-76
2022/06/16 02:40:11;;;;;;;10.05;5.35;;;;;;;16.96;56.21;101841.88;5011047;28;20057;-75
2022/06/16 02:43:18;;;;;;;8.55;6.35;;;;;;;16.77;56.44;101845.09;5010378;28;20041;-75
2022/06/16 02:45:56;;;;;;;10.05;5.55;;;;;;;16.57;56.94;101846.50;5010977;28;20057;-75
2022/06/16 02:48:35;;;;;;;10.80;5.77;;;;;;;16.54;57.47;101845.88;5010886;28;20026;-75
2022/06/16 02:51:17;;;;;;;7.05;5.47;;;;;;;16.65;57.06;101845.94;5011070;28;20068;-75
2022/06/16 02:54:11;;;;;;;5.43;4.88;;;;;;;16.63;57.03;101855.94;5009974;28;22142;-75
2022/06/16 02:57:10;;;;;;;9.80;5.60;;;;;;;16.60;57.06;101848.09;5010230;28;20025;-75
2022/06/16 02:59:40;;;;;;;;;;;;;;;16.70;55.94;101845.59;5033808;28;20024;-75
2022/06/16 03:02:11;;;;;;;6.93;5.43;;;;;;;16.46;57.51;101851.78;5032228;28;19913;-75
2022/06/16 03:04:45;;;;;;;11.63;5.68;;;;;;;16.35;57.68;101846.31;4997129;28;20030;-75
2022/06/16 03:07:12;;;;;;;8.38;6.30;;;;;;;16.39;57.47;101846.97;5013081;28;20018;-75
2022/06/16 03:09:38;;;;;;;9.00;6.00;;;;;;;16.22;58.17;101862.44;5014932;28;20469;-76
2022/06/16 03:12:06;;;;;;;8.68;6.50;;;;;;;16.23;57.77;101842.69;4997454;28;20026;-75
2022/06/16 03:14:34;;;;;;;9.27;6.28;;;;;;;16.39;58.02;101849.66;5012979;28;20034;-75
2022/06/16 03:17:01;;;;;;;8.63;5.97;;;;;;;16.21;58.63;101841.94;4996959;28;20033;-75
2022/06/16 03:19:26;;;;;;;8.68;6.50;;;;;;;16.18;58.24;101852.03;4997211;28;20029;-75
2022/06/16 03:21:52;;;;;;;6.63;5.72;;;;;;;16.15;58.60;101853.13;4996950;28;20038;-75
2022/06/16 03:24:17;;;;;;;8.60;6.50;;;;;;;16.00;58.47;101855.06;5014045;28;20120;-75
2022/06/16 03:26:45;;;;;;;8.55;6.13;;;;;;;16.07;58.52;101860.84;4997470;28;20481;-75
2022/06/16 03:29:11;;;;;;;14.95;6.63;;;;;;;16.06;58.62;101851.06;5014462;28;20175;-75
2022/06/16 03:31:41;;;;;;;8.73;6.30;;;;;;;15.99;59.02;101856.00;5016477;28;20425;-76
2022/06/16 03:34:07;;;;;;;7.68;6.05;;;;;;;16.06;58.09;101834.97;5016096;28;20026;-76
2022/06/16 03:36:33;;;;;;;8.68;6.60;;;;;;;16.02;58.72;101849.56;5014895;28;20041;-75
2022/06/16 03:39:00;;;;;;;7.55;6.53;;;;;;;15.84;59.18;101843.66;4996690;28;20033;-75
2022/06/16 03:41:25;;;;;;;9.90;6.47;;;;;;;15.97;58.91;101859.75;4999408;28;20215;-75
2022/06/16 03:43:51;;;;;;;12.32;7.10;;;;;;;15.92;59.04;101865.47;5013752;28;20125;-75
2022/06/16 03:46:16;;;;;;;12.23;6.88;;;;;;;15.99;58.58;101869.41;4979588;28;20401;-75
2022/06/16 03:48:42;;;;;;;9.43;6.82;;;;;;;15.98;59.03;101874.91;5000184;28;20052;-75
2022/06/16 03:51:09;;;;;;;10.35;6.70;;;;;;;15.97;58.91;101876.75;5034045;28;20013;-76
2022/06/16 03:53:39;;;;;;;10.23;7.07;;;;;;;15.88;59.12;101882.72;5034125;28;20374;-75
2022/06/16 03:56:09;;;;;;;9.23;7.38;;;;;;;15.85;59.46;101897.22;5020257;28;20037;-75
2022/06/16 03:58:35;;;;;;;11.98;7.60;;;;;;;15.73;59.00;101886.44;4998572;28;20030;-76
2022/06/16 04:01:00;;;;;;;11.88;7.22;;;;;;;15.91;58.49;101895.91;5016784;28;20053;-75
2022/06/16 04:06:16;;;;;;;8.52;7.32;;;;;;;15.86;59.05;101898.09;5016197;28;20061;-75
2022/06/16 04:08:42;;;;;;;10.57;7.45;;;;;;;15.89;59.14;101909.44;5016393;28;20485;-75
2022/06/16 04:11:27;;;;;;;9.63;7.47;;;;;;;15.88;58.47;101902.38;5014000;28;20029;-75
2022/06/16 04:13:55;;;;;;;10.20;7.35;;;;;;;15.81;59.33;101905.56;4996075;28;20087;-75
2022/06/16 04:16:22;;;;;;;8.70;7.00;;;;;;;15.82;59.00;101912.66;5012991;28;20036;-75
2022/06/16 04:18:48;;;;;;;10.77;6.97;;;;;;;15.82;59.26;101913.50;5013264;28;20486;-75
2022/06/16 04:21:20;;;;;;;9.40;6.78;;;;;;;15.93;58.25;101904.72;5013718;28;20764;-75
2022/06/16 04:23:46;;;;;;;11.15;6.80;;;;;;;15.81;59.00;101911.78;5013592;28;20094;-75
2022/06/16 04:26:11;;;;;;;10.07;7.38;;;;;;;15.71;59.39;101912.53;4976632;28;20030;-75
2022/06/16 04:28:37;;;;;;;10.15;7.10;;;;;;;15.76;58.75;101916.59;5013851;28;20068;-75
2022/06/16 04:31:02;;;;;;;12.13;6.80;;;;;;;15.71;58.72;101912.53;5032991;28;20036;-75
2022/06/16 04:33:30;;;;;;;13.38;7.47;;;;;;;15.79;59.00;101916.41;5021380;28;20033;-75
2022/06/16 04:35:56;;;;;;;8.00;6.80;;;;;;;15.84;59.03;101919.63;4994359;28;20038;-76
2022/06/16 04:38:21;;;;;;;10.38;7.38;;;;;;;15.88;58.09;101918.47;5012139;28;20122;-75
2022/06/16 04:40:47;;;;;;;8.43;7.32;;;;;;;15.96;57.86;101925.13;5013111;28;20428;-74
2022/06/16 04:43:15;;;;;;;9.32;7.63;;;;;;;15.88;58.90;101939.94;4995253;28;20048;-75
2022/06/16 04:45:44;;;;;;;10.38;7.03;;;;;;;16.00;58.12;101940.03;4979860;28;20472;-75
2022/06/16 04:48:12;;;;;;;11.38;7.22;;;;;;;16.04;57.88;101945.09;5020182;28;20061;-75
2022/06/16 04:50:38;;;;;;;14.05;7.63;;;;;;;16.06;58.32;101940.50;5013254;28;20017;-75
2022/06/16 04:53:05;;;;;;;9.93;7.22;;;;;;;16.06;57.68;101939.63;4995382;28;20484;-75
2022/06/16 04:55:30;;;;;;;10.55;7.30;;;;;;;16.14;57.37;101942.63;5012388;28;20022;-75
2022/06/16 04:57:56;;;;;;;10.35;7.07;;;;;;;16.07;58.40;101939.53;5012801;28;20485;-75
2022/06/16 05:00:22;;;;;;;10.52;7.45;;;;;;;16.08;58.08;101948.44;4994957;28;20026;-75
2022/06/16 05:02:47;;;;;;;11.63;7.35;;;;;;;16.17;57.48;101939.75;5019019;28;20120;-75
2022/06/16 05:05:13;;;;;;;10.88;7.57;;;;;;;16.28;56.71;101947.06;5014740;28;20033;-75
2022/06/16 05:07:39;;;;;;;10.30;7.88;;;;;;;16.32;56.52;101956.63;4996621;28;20121;-75
2022/06/16 05:10:05;;;;;;;10.13;7.07;;;;;;;16.42;56.26;101955.03;5012027;28;20033;-75
2022/06/16 05:12:30;;;;;;;10.43;7.00;;;;;;;16.44;55.83;101963.84;5010345;28;20045;-75
2022/06/16 05:14:56;;;;;;;8.45;7.63;;;;;;;16.53;56.03;101967.66;5028925;28;20041;-75
2022/06/16 05:17:21;;;;;;;11.35;7.85;;;;;;;16.58;55.71;101968.22;4994823;28;20026;-75
2022/06/16 05:19:49;;;;;;;8.98;6.80;;;;;;;16.63;55.85;101974.13;5012689;28;20152;-75
2022/06/16 05:22:14;;;;;;;11.48;7.15;;;;;;;16.65;55.27;101969.53;5000308;28;20025;-75
2022/06/16 05:24:40;;;;;;;9.43;6.47;;;;;;;16.82;55.04;101980.91;5014503;28;20038;-75
2022/06/16 05:27:06;;;;;;;14.10;7.82;;;;;;;16.82;54.96;101978.22;5014476;28;20030;-75
2022/06/16 05:29:34;;;;;;;12.52;7.32;;;;;;;16.87;55.75;101979.63;5031380;28;20038;-75
2022/06/16 05:31:59;;;;;;;11.57;7.60;;;;;;;16.97;54.29;101986.06;5024623;28;20026;-75
2022/06/16 05:34:25;;;;;;;9.80;7.22;;;;;;;16.95;54.04;101971.88;4994138;28;20033;-75
2022/06/16 05:36:51;;;;;;;15.77;7.10;;;;;;;17.07;53.58;101985.41;4978395;28;20547;-75
2022/06/16 05:39:16;;;;;;;11.43;7.63;;;;;;;17.10;53.13;101985.19;4994569;28;20041;-75
2022/06/16 05:41:42;;;;;;;12.88;7.07;;;;;;;17.21;53.74;101991.50;4993575;28;20068;-76
2022/06/16 05:44:09;;;;;;;9.77;6.60;;;;;;;17.20;53.93;101987.06;4993945;28;20084;-75
2022/06/16 05:46:35;;;;;;;12.23;7.43;;;;;;;17.36;52.87;102007.47;5012142;28;20022;-75
2022/06/16 05:49:00;;;;;;;10.02;7.05;;;;;;;17.20;52.85;102007.72;4994318;28;20044;-75
2022/06/16 05:51:26;;;;;;;13.15;7.00;;;;;;;17.34;51.51;102010.25;4993716;28;20030;-75
2022/06/16 05:53:51;;;;;;;11.75;6.20;;;;;;;17.37;51.45;102006.50;5011236;28;20508;-75
2022/06/16 05:56:19;;;;;;;10.48;6.93;;;;;;;17.46;50.62;102009.38;5010910;28;20141;-75
2022/06/16 05:58:45;;;;;;;13.38;7.15;;;;;;;17.52;50.02;102008.06;5011137;28;20029;-75
2022/06/16 06:01:13;;;;;;;13.20;6.63;;;;;;;17.63;49.45;102007.28;5022686;28;20045;-75
2022/06/16 06:03:43;;;;;;;19.27;6.55;;;;;;;17.73;50.44;102008.28;4992727;28;20072;-75
2022/06/16 06:06:12;;;;;;;9.45;6.00;;;;;;;17.71;48.68;102029.09;5011708;28;20036;-74
2022/06/16 06:16:58;;;;;;;6.05;4.97;;;;;;;17.93;46.73;102025.66;4996963;28;20064;-75
2022/06/16 06:19:23;;;;;;;9.00;4.97;;;;;;;17.97;46.91;102023.59;5011948;28;20041;-75
2022/06/16 06:21:59;;;;;;;7.57;4.80;;;;;;;18.03;46.76;102015.94;5011613;28;20021;-75
2022/06/16 06:24:27;;;;;;;7.60;5.00;;;;;;;18.10;45.88;102016.31;4993179;28;20749;-75
2022/06/16 06:26:54;;;;;;;9.38;4.93;;;;;;;18.20;46.96;102021.84;5031099;28;20045;-75
2022/06/16 06:29:21;;;;;;;8.35;5.15;;;;;;;18.30;47.25;102030.97;5030877;28;20045;-75
2022/06/16 06:31:46;;;;;;;8.95;4.45;;;;;;;18.41;46.16;102030.97;5030890;28;20539;-75
2022/06/16 06:34:12;;;;;;;8.43;4.80;;;;;;;18.57;45.26;102030.66;4994165;28;20125;-75
2022/06/16 06:36:40;;;;;;;8.57;4.75;;;;;;;18.63;45.79;102035.56;5009688;28;20488;-75
2022/06/16 06:39:08;;;;;;;7.03;4.57;;;;;;;18.69;45.40;102021.59;4993598;28;20057;-75
2022/06/16 06:41:33;;;;;;;10.67;4.70;;;;;;;18.78;48.48;102029.00;5011003;28;20038;-75
2022/06/16 06:44:00;;;;;;;7.68;4.47;;;;;;;18.87;46.39;102022.00;5010765;28;20468;-75
2022/06/16 06:46:25;;;;;;;7.00;4.43;;;;;;;18.98;43.72;102027.41;4992842;28;20042;-75
2022/06/16 06:48:50;;;;;;;8.48;4.20;;;;;;;18.99;43.83;102029.13;5011198;28;20033;-75
2022/06/16 06:51:21;;;;;;;11.55;3.90;;;;;;;19.13;43.51;102037.94;5010984;28;20030;-75
2022/06/16 06:53:46;;;;;;;6.00;4.25;;;;;;;19.19;43.31;102035.59;4993345;28;20022;-74
2022/06/16 06:56:15;;;;;;;5.28;3.80;;;;;;;19.26;44.29;102034.13;5010560;28;20049;-74
2022/06/16 06:58:41;;;;;;;4.55;3.20;;;;;;;19.32;42.10;102038.16;4992568;28;20489;-75
2022/06/16 07:01:09;;;;;;;5.40;3.13;;;;;;;19.38;41.66;102043.06;5011168;28;20040;-75
2022/06/16 07:03:34;;;;;;;9.18;3.92;;;;;;;19.48;41.71;102051.28;5011024;28;20029;-75
2022/06/16 07:06:01;;;;;;;4.35;3.70;;;;;;;19.55;42.74;102054.31;5011092;28;20156;-75
2022/06/16 07:08:28;;;;;;;7.05;3.63;;;;;;;19.66;42.16;102060.59;5009241;28;20108;-75
2022/06/16 07:10:54;;;;;;;7.40;3.65;;;;;;;19.69;41.24;102054.94;5010836;28;20057;-76
2022/06/16 07:13:19;;;;;;;10.02;3.50;;;;;;;19.78;40.80;102065.97;5010215;28;20025;-75
2022/06/16 07:15:46;;;;;;;7.80;3.08;;;;;;;19.74;40.77;102074.31;5010510;28;20038;-75
2022/06/16 07:18:12;;;;;;;7.25;3.47;;;;;;;19.81;41.75;102079.22;5005706;28;20033;-76
2022/06/16 07:20:38;;;;;;;4.97;3.30;;;;;;;19.83;41.25;102078.09;5022397;28;20026;-75
2022/06/16 07:23:03;;;;;;;8.10;3.25;;;;;;;19.93;41.13;102073.66;4992877;28;20124;-75
2022/06/16 07:25:28;;;;;;;8.75;3.97;;;;;;;20.07;40.42;102083.31;5008487;28;20960;-75
2022/06/16 07:27:56;;;;;;;7.00;3.50;;;;;;;20.06;40.04;102094.22;5024310;28;20076;-75
2022/06/16 07:30:23;;;;;;;4.18;3.05;;;;;;;20.19;41.78;102084.97;5010217;28;20070;-75
2022/06/16 07:32:50;;;;;;;4.53;3.05;;;;;;;20.26;40.49;102089.84;4992684;28;20037;-75
2022/06/16 07:35:19;;;;;;;6.57;3.60;;;;;;;20.32;41.13;102100.13;4976035;28;20121;-76
2022/06/16 07:37:45;;;;;;;5.80;2.95;;;;;;;20.46;40.14;102112.50;5008901;28;20057;-76
2022/06/16 07:40:12;;;;;;;5.10;2.85;;;;;;;20.59;40.18;102105.09;4996854;28;20072;-76
2022/06/16 07:42:38;;;;;;;3.92;3.28;;;;;;;20.62;39.29;102116.50;5009581;28;20186;-76
2022/06/16 07:45:04;;;;;;;5.22;3.25;;;;;;;20.80;39.38;102119.47;5011976;28;20034;-75
2022/06/16 07:47:30;;;;;;;6.60;3.20;;;;;;;20.84;40.11;102120.91;5012860;28;20068;-75
2022/06/16 07:49:55;;;;;;;5.40;3.20;;;;;;;21.08;39.91;102122.47;5013904;28;20112;-75
2022/06/16 07:52:24;;;;;;;6.30;3.20;;;;;;;21.12;40.34;102131.16;5012842;28;20092;-75
2022/06/16 07:54:49;;;;;;;4.90;3.08;;;;;;;21.04;39.91;102126.44;4996047;28;20057;-75
2022/06/16 07:57:17;;;;;;;5.45;3.40;;;;;;;21.09;41.28;102127.75;4997633;28;20092;-75
2022/06/16 07:59:44;;;;;;;6.05;3.08;;;;;;;21.19;40.34;102127.81;5012608;28;20025;-75
2022/06/16 08:02:09;;;;;;;8.00;3.65;;;;;;;21.35;41.16;102134.56;5013391;28;20029;-75
2022/06/16 08:04:35;;;;;;;8.25;3.75;;;;;;;21.26;39.58;102138.94;4995662;28;20030;-75
2022/06/16 08:07:00;;;;;;;13.38;3.28;;;;;;;21.30;40.76;102143.97;4997019;28;20034;-76
2022/06/16 08:09:36;;;;;;;10.90;3.30;;;;;;;21.45;39.18;102141.78;5013962;28;20042;-74
2022/06/16 08:12:04;;;;;;;6.50;3.22;;;;;;;21.45;40.15;102141.78;4998481;28;20034;-75
2022/06/16 08:14:36;;;;;;;5.93;2.75;;;;;;;21.53;39.38;102141.06;5016429;28;20397;-76
2022/06/16 08:17:04;;;;;;;6.70;3.45;;;;;;;21.64;37.91;102149.09;5035680;28;20025;-74
2022/06/16 08:19:29;;;;;;;6.28;3.20;;;;;;;21.62;38.36;102143.00;5016278;28;20092;-74
2022/06/16 08:21:57;;;;;;;10.65;3.10;;;;;;;21.82;38.44;102141.16;4996784;28;20021;-75
2022/06/16 08:24:23;;;;;;;6.45;3.38;;;;;;;21.78;38.26;102139.75;4996213;28;20124;-75
2022/06/16 08:26:49;;;;;;;5.65;3.30;;;;;;;21.94;37.48;102145.50;5013709;28;20030;-75
2022/06/16 08:29:17;;;;;;;7.07;2.83;;;;;;;21.93;37.47;102132.09;5013005;28;20116;-76
2022/06/16 08:31:43;;;;;;;11.63;3.42;;;;;;;21.93;38.85;102135.63;4995162;28;20025;-75
2022/06/16 08:34:09;;;;;;;4.28;3.63;;;;;;;22.00;38.74;102128.69;5022964;28;20040;-75
2022/06/16 08:36:35;;;;;;;6.00;3.20;;;;;;;22.15;37.42;102120.16;5032958;28;20033;-76
2022/06/16 08:39:01;;;;;;;6.38;3.08;;;;;;;22.16;38.24;102124.56;5033384;28;20112;-75
2022/06/16 08:41:35;;;;;;;7.40;2.85;;;;;;;22.28;38.16;102128.88;5029797;28;20052;-75
2022/06/16 08:44:00;;;;;;;4.35;2.72;;;;;;;22.47;37.17;102121.72;5012409;28;20596;-75
2022/06/16 08:46:34;;;;;;;9.45;2.80;;;;;;;22.44;36.98;102125.59;4995378;28;20030;-75
2022/06/16 08:49:35;;;;;;;9.95;3.20;;;;;;;22.45;38.13;102125.47;5017043;28;20029;-75
2022/06/16 08:52:19;;;;;;;6.25;2.80;;;;;;;22.67;36.22;102127.00;4994574;28;20025;-75
2022/06/16 08:55:01;;;;;;;10.18;3.25;;;;;;;22.85;35.90;102135.28;4994669;28;20076;-75
2022/06/16 08:57:47;;;;;;;5.70;2.50;;;;;;;23.03;36.41;102151.69;5010816;28;20026;-75
2022/06/16 09:00:18;;;;;;;8.80;3.15;;;;;;;22.88;36.91;102153.97;5012826;28;20029;-75
2022/06/16 09:03:03;;;;;;;7.25;2.92;;;;;;;22.92;36.55;102142.81;4992723;28;20032;-75
2022/06/16 09:05:32;;;;;;;6.13;3.03;;;;;;;23.04;35.86;102157.97;5012727;28;20030;-75
2022/06/16 09:08:38;;;;;;;8.18;3.25;;;;;;;23.26;36.26;102164.91;5012006;28;20053;-75
2022/06/16 09:11:09;;;;;;;5.72;3.33;;;;;;;23.19;35.47;102167.34;4990531;28;20497;-75
2022/06/16 09:13:43;;;;;;;3.83;3.00;;;;;;;23.32;35.82;102157.03;5012355;28;20056;-75
2022/06/16 09:16:43;;;;;;;9.57;2.90;;;;;;;23.58;36.20;102165.34;5012767;28;20038;-75
2022/06/16 09:19:41;;;;;;;6.10;3.33;;;;;;;23.66;35.31;102174.63;4994266;28;20388;-75
2022/06/16 09:22:18;;;;;;;6.15;3.20;;;;;;;23.49;36.58;102171.66;4995032;28;20046;-75
2022/06/16 09:25:08;;;;;;;6.20;3.35;;;;;;;23.58;35.25;102165.34;5012428;28;20087;-75
2022/06/16 09:27:42;;;;;;;13.18;4.75;;;;;;;23.67;35.85;102174.44;5012047;28;20025;-75
2022/06/16 09:30:17;;;;;;;9.02;3.65;;;;;;;23.89;35.52;102169.69;5010981;28;20080;-75
2022/06/16 09:33:09;;;;;;;6.72;3.20;;;;;;;24.02;34.80;102171.00;5010555;28;20032;-75
2022/06/16 09:35:42;;;;;;;11.00;4.22;;;;;;;24.06;34.19;102168.84;4994373;28;20489;-75
2022/06/16 09:38:21;;;;;;;10.05;3.70;;;;;;;24.23;36.00;102157.13;5012268;28;20037;-75
2022/06/16 09:40:58;;;;;;;6.50;3.53;;;;;;;24.29;34.44;102168.41;5011575;28;20018;-75
2022/06/16 09:43:37;;;;;;;8.57;3.42;;;;;;;24.28;36.40;102172.97;4994153;28;20445;-75
2022/06/16 09:46:11;;;;;;;7.90;2.90;;;;;;;24.26;36.38;102178.56;5012195;28;20032;-75
2022/06/16 09:48:45;;;;;;;6.32;3.33;;;;;;;24.31;35.42;102177.25;5011698;28;20031;-75
2022/06/16 09:51:17;;;;;;;9.68;3.50;;;;;;;24.30;35.74;102181.00;5011317;28;20033;-75
2022/06/16 09:54:14;;;;;;;6.13;2.80;;;;;;;24.46;36.47;102167.56;5010912;28;20088;-75
2022/06/16 09:57:13;;;;;;;5.60;3.47;;;;;;;24.38;35.02;102165.59;5012049;28;20401;-75
2022/06/16 09:59:50;;;;;;;5.97;3.70;;;;;;;24.64;35.06;102171.13;4994408;28;20096;-75
2022/06/16 10:02:33;;;;;;;8.05;3.50;;;;;;;24.62;35.41;102169.59;5007090;28;20025;-76
2022/06/16 10:04:59;;;;;;;5.35;3.05;;;;;;;24.75;36.16;102167.31;5006665;28;20033;-76
2022/06/16 10:07:37;;;;;;;6.55;3.47;;;;;;;24.75;34.41;102163.75;5011519;28;20350;-75
2022/06/16 10:10:28;;;;;;;7.78;2.88;;;;;;;24.92;35.25;102169.16;5011751;28;20033;-75
2022/06/16 10:13:31;;;;;;;6.68;3.22;;;;;;;25.11;34.44;102167.25;4990771;28;20038;-75
2022/06/16 10:16:11;;;;;;;8.10;3.70;;;;;;;25.22;33.81;102160.72;5010767;28;20026;-75
2022/06/16 10:18:37;;;;;;;6.75;3.38;;;;;;;25.43;33.35;102169.34;5008713;28;20469;-75
2022/06/16 10:21:07;;;;;;;7.47;3.47;;;;;;;25.55;34.12;102176.22;5011705;28;20109;-75
2022/06/16 10:23:49;;;;;;;9.45;3.40;;;;;;;25.64;34.01;102176.25;5011439;28;20040;-75
2022/06/16 10:26:15;;;;;;;7.97;3.35;;;;;;;25.68;34.10;102170.31;5011467;28;20413;-75
2022/06/16 10:28:40;;;;;;;7.10;3.20;;;;;;;25.69;31.82;102188.38;4992627;28;20092;-75
2022/06/16 10:31:07;;;;;;;5.35;3.05;;;;;;;25.71;33.29;102189.06;5009484;28;20476;-75
2022/06/16 10:33:35;;;;;;;12.05;3.50;;;;;;;25.80;32.98;102198.16;4993508;28;20029;-75
2022/06/16 10:36:06;;;;;;;10.25;3.60;;;;;;;25.98;33.43;102195.34;5011448;28;20030;-76
2022/06/16 10:38:39;;;;;;;9.32;4.05;;;;;;;25.90;32.27;102198.03;5007632;28;20089;-75
2022/06/16 10:41:25;;;;;;;6.63;3.95;;;;;;;25.97;32.78;102190.88;5012902;28;20531;-75
2022/06/16 10:43:53;;;;;;;7.65;3.50;;;;;;;26.16;31.68;102187.88;5012743;28;20037;-75
2022/06/16 10:46:22;;;;;;;8.98;3.50;;;;;;;26.19;31.67;102189.44;5011121;28;20022;-75
2022/06/16 10:48:50;;;;;;;;;;;;;;;26.48;33.06;102181.63;5011060;28;20026;-75
2022/06/16 10:51:25;;;;;;;10.00;3.60;;;;;;;26.20;32.69;102181.06;5010747;28;19923;-76
2022/06/16 10:53:50;;;;;;;7.20;3.13;;;;;;;26.41;32.36;102183.31;4992366;28;20064;-75
2022/06/16 10:56:26;;;;;;;8.07;3.35;;;;;;;26.34;31.64;102179.56;5011155;28;20026;-75
2022/06/16 10:59:24;;;;;;;7.88;3.00;;;;;;;26.58;32.96;102165.13;4977802;28;20038;-76
2022/06/16 11:02:04;;;;;;;6.75;3.65;;;;;;;26.80;31.49;102169.06;4996017;28;20034;-76
2022/06/16 11:04:37;;;;;;;8.52;3.97;;;;;;;26.71;32.77;102168.22;5010173;28;20389;-76
2022/06/16 11:07:03;;;;;;;7.03;3.50;;;;;;;26.82;33.25;102174.34;5020503;28;20588;-76
2022/06/16 11:09:36;;;;;;;8.55;3.50;;;;;;;26.72;33.90;102183.56;5030403;28;20104;-76
2022/06/16 11:12:14;;;;;;;6.68;3.70;;;;;;;26.98;32.79;102170.75;5012878;28;20029;-76
2022/06/16 11:14:39;;;;;;;6.72;3.10;;;;;;;27.05;31.65;102171.75;4994909;28;20068;-76
2022/06/16 11:17:20;;;;;;;7.70;3.50;;;;;;;27.16;31.74;102172.28;4992900;28;20107;-76
2022/06/16 11:19:58;;;;;;;7.78;3.38;;;;;;;27.21;31.42;102169.03;4993961;28;20052;-76
2022/06/16 11:22:34;;;;;;;5.50;3.03;;;;;;;27.32;30.69;102165.06;5033091;28;20033;-76
2022/06/16 11:25:02;;;;;;;6.80;3.42;;;;;;;27.42;30.64;102163.00;5008882;28;20030;-76
2022/06/16 11:27:38;;;;;;;8.05;2.90;;;;;;;27.57;31.61;102165.84;5014087;28;20485;-76
2022/06/16 11:30:29;;;;;;;10.32;3.15;;;;;;;27.70;31.49;102160.66;5015546;28;20026;-76
2022/06/16 11:32:55;;;;;;;5.55;3.00;;;;;;;27.20;31.92;102161.00;5013588;28;20030;-76
2022/06/16 11:35:34;;;;;;;6.57;3.10;;;;;;;27.39;32.86;102164.19;5008457;28;20374;-76
2022/06/16 11:38:11;;;;;;;8.07;3.38;;;;;;;27.31;32.68;102158.75;5029513;28;20029;-75
2022/06/16 11:40:50;;;;;;;7.85;3.00;;;;;;;27.56;33.86;102150.47;5014670;28;20026;-76
2022/06/16 11:43:48;;;;;;;5.18;2.50;;;;;;;28.10;32.29;102158.78;5013809;28;20518;-76
2022/06/16 11:46:22;;;;;;;9.23;2.75;;;;;;;27.72;30.69;102155.03;4968810;28;20585;-76
2022/06/16 11:49:09;;;;;;;5.32;2.55;;;;;;;28.26;30.38;102153.19;5034085;28;20262;-76
2022/06/16 11:51:46;;;;;;;4.35;2.88;;;;;;;28.45;29.93;102160.09;5034044;28;20021;-76
2022/06/16 11:54:23;;;;;;;7.28;3.65;;;;;;;28.43;30.44;102153.94;5033244;28;20034;-76
2022/06/16 11:56:57;;;;;;;4.88;2.75;;;;;;;28.82;29.97;102154.81;5011147;28;20427;-76
2022/06/16 12:00:16;;;;;;;5.97;3.00;;;;;;;29.30;29.11;102163.63;5013584;28;20183;-77
2022/06/16 12:03:04;;;;;;;5.53;3.00;;;;;;;29.17;29.87;102165.09;4981842;28;20038;-76
2022/06/16 12:05:58;;;;;;;4.25;2.92;;;;;;;28.75;29.56;102174.72;5014059;28;20413;-76